Time;durP1;ratioP1;P1;durP2;ratioP2;P2;SDS_P1;SDS_P2;PMS_P1;PMS_P2;Temp;Humidity;BMP_temperature;BMP_pressure;BME280_temperature;BME280_humidity;BME280_pressure;Samples;Min_cycle;Max_cycle;Signal;HPM_P1;HPM_P2
2021/12/11 00:01:16;;;;;;;23.65;8.02;;;;;;;;;;5008431;28;20061;-74
2021/12/11 00:03:43;;;;;;;25.00;8.57;;;;;;;;;;5010031;28;20041;-76
2021/12/11 00:06:17;;;;;;;24.40;8.32;;;;;;;;;;5012903;28;20037;-75
2021/12/11 00:08:44;;;;;;;21.80;7.95;;;;;;;;;;5009735;28;20058;-75
2021/12/11 00:11:15;;;;;;;16.88;7.85;;;;;;;;;;5008675;28;20050;-75
2021/12/11 00:13:42;;;;;;;19.40;7.15;;;;;;;;;;5012822;28;20061;-75
2021/12/11 00:16:13;;;;;;;24.25;8.15;;;;;;;;;;5013178;28;20029;-75
2021/12/11 00:18:39;;;;;;;20.58;7.05;;;;;;;;;;5012852;28;20482;-75
2021/12/11 00:21:16;;;;;;;20.17;7.15;;;;;;;;;;5011923;28;20030;-75
2021/12/11 00:23:52;;;;;;;;;;;;;;;;;;5022731;28;20077;-75
2021/12/11 00:26:45;;;;;;;16.65;6.13;;;;;;;;;;5004155;28;19917;-75
2021/12/11 00:29:12;;;;;;;14.43;5.40;;;;;;;;;;5013983;28;20521;-75
2021/12/11 00:31:46;;;;;;;15.55;5.57;;;;;;;;;;5032426;28;20053;-74
2021/12/11 00:34:14;;;;;;;17.92;6.63;;;;;;;;;;5016677;28;20551;-74
2021/12/11 00:36:40;;;;;;;18.13;6.55;;;;;;;;;;5020894;28;20409;-74
2021/12/11 00:39:12;;;;;;;22.40;7.97;;;;;;;;;;5003042;28;20037;-74
2021/12/11 00:41:39;;;;;;;21.52;7.57;;;;;;;;;;5016482;28;20045;-74
2021/12/11 00:44:05;;;;;;;18.75;7.15;;;;;;;;;;5004420;28;20042;-74
2021/12/11 00:46:32;;;;;;;15.50;7.23;;;;;;;;;;5016276;28;20060;-74
2021/12/11 00:49:18;;;;;;;17.77;6.57;;;;;;;;;;5016440;28;20042;-74
2021/12/11 00:51:51;;;;;;;20.23;8.02;;;;;;;;;;5028326;28;20046;-74
2021/12/11 00:54:17;;;;;;;17.25;6.32;;;;;;;;;;5006342;28;20045;-74
2021/12/11 00:56:45;;;;;;;14.37;6.53;;;;;;;;;;5010566;28;20046;-74
2021/12/11 00:59:13;;;;;;;15.30;6.15;;;;;;;;;;5007714;28;20390;-74
2021/12/11 01:01:51;;;;;;;13.10;6.63;;;;;;;;;;5016646;28;20056;-74
2021/12/11 01:04:20;;;;;;;19.23;6.03;;;;;;;;;;5015710;28;20073;-76
2021/12/11 01:06:50;;;;;;;23.50;7.40;;;;;;;;;;5023986;28;20074;-76
2021/12/11 01:09:31;;;;;;;22.35;7.03;;;;;;;;;;5014790;28;20129;-75
2021/12/11 01:12:20;;;;;;;21.15;6.70;;;;;;;;;;5016644;28;20046;-75
2021/12/11 01:14:55;;;;;;;13.88;7.22;;;;;;;;;;5010682;28;20045;-73
2021/12/11 01:17:59;;;;;;;14.23;6.45;;;;;;;;;;5014559;28;20512;-72
2021/12/11 01:20:34;;;;;;;13.50;5.53;;;;;;;;;;5010468;28;20054;-72
2021/12/11 01:23:01;;;;;;;17.52;7.55;;;;;;;;;;5011096;28;20038;-74
2021/12/11 01:25:26;;;;;;;;;;;;;;;;;;5002613;28;20553;-75
2021/12/11 01:28:01;;;;;;;22.85;7.32;;;;;;;;;;5011678;28;19984;-74
2021/12/11 01:30:32;;;;;;;29.40;9.77;;;;;;;;;;5014696;28;20065;-74
2021/12/11 01:32:58;;;;;;;28.65;11.73;;;;;;;;;;5016105;28;20041;-74
2021/12/11 01:35:24;;;;;;;37.28;12.00;;;;;;;;;;5015911;28;20048;-74
2021/12/11 01:38:00;;;;;;;30.65;12.95;;;;;;;;;;5016031;28;20116;-74
2021/12/11 01:40:30;;;;;;;28.88;11.10;;;;;;;;;;5015526;28;20038;-74
2021/12/11 01:42:56;;;;;;;20.85;8.63;;;;;;;;;;5015711;28;20474;-73
2021/12/11 01:45:22;;;;;;;20.90;8.20;;;;;;;;;;5014811;28;20069;-74
2021/12/11 01:47:48;;;;;;;26.73;10.33;;;;;;;;;;5014528;28;20045;-74
2021/12/11 01:50:18;;;;;;;16.97;8.50;;;;;;;;;;5015411;28;20042;-73
2021/12/11 01:52:56;;;;;;;30.65;10.05;;;;;;;;;;5015365;28;20450;-74
2021/12/11 01:55:31;;;;;;;22.73;9.55;;;;;;;;;;5015526;28;20038;-73
2021/12/11 01:57:57;;;;;;;27.58;9.18;;;;;;;;;;5007535;28;20030;-74
2021/12/11 02:00:29;;;;;;;23.38;9.20;;;;;;;;;;5012797;28;20033;-74
2021/12/11 02:02:56;;;;;;;18.58;8.45;;;;;;;;;;5030805;28;20056;-74
2021/12/11 02:05:27;;;;;;;19.67;8.00;;;;;;;;;;5011086;28;20116;-74
2021/12/11 02:07:55;;;;;;;19.63;7.18;;;;;;;;;;5015479;28;20033;-74
2021/12/11 02:10:43;;;;;;;25.58;8.60;;;;;;;;;;5028188;28;20040;-74
2021/12/11 02:13:12;;;;;;;22.02;8.63;;;;;;;;;;5008203;28;20041;-73
2021/12/11 02:15:46;;;;;;;20.08;8.30;;;;;;;;;;5013238;28;20477;-74
2021/12/11 02:18:14;;;;;;;28.20;8.88;;;;;;;;;;5026786;28;20121;-74
2021/12/11 02:20:49;;;;;;;27.77;8.65;;;;;;;;;;5014541;28;20489;-74
2021/12/11 02:23:14;;;;;;;30.45;8.50;;;;;;;;;;5029835;28;20038;-73
2021/12/11 02:25:46;;;;;;;24.50;8.50;;;;;;;;;;5010447;28;20501;-74
2021/12/11 02:28:24;;;;;;;18.63;7.70;;;;;;;;;;5010930;28;20044;-74
2021/12/11 02:31:01;;;;;;;21.98;8.50;;;;;;;;;;5011753;28;20512;-74
2021/12/11 02:33:40;;;;;;;20.08;8.45;;;;;;;;;;5020254;28;20050;-74
2021/12/11 02:36:23;;;;;;;23.95;8.60;;;;;;;;;;5014921;28;20034;-74
2021/12/11 02:39:01;;;;;;;22.92;8.63;;;;;;;;;;5006122;28;20043;-74
2021/12/11 02:41:34;;;;;;;24.55;8.90;;;;;;;;;;5014558;28;20131;-75
2021/12/11 02:44:10;;;;;;;21.65;8.90;;;;;;;;;;5014242;28;20448;-75
2021/12/11 02:46:44;;;;;;;22.20;9.20;;;;;;;;;;5013601;28;20049;-74
2021/12/11 02:49:25;;;;;;;20.98;8.48;;;;;;;;;;5003286;28;20073;-74
2021/12/11 02:51:54;;;;;;;18.52;7.38;;;;;;;;;;5013973;28;20107;-74
2021/12/11 02:54:34;;;;;;;23.73;9.30;;;;;;;;;;5009986;28;20042;-73
2021/12/11 02:57:04;;;;;;;21.30;7.57;;;;;;;;;;5013781;28;20098;-73
2021/12/11 02:59:32;;;;;;;18.98;8.55;;;;;;;;;;5007414;28;20160;-74
2021/12/11 03:02:10;;;;;;;17.20;6.80;;;;;;;;;;5000737;28;20496;-73
2021/12/11 03:04:40;;;;;;;19.15;8.25;;;;;;;;;;5011158;28;20042;-74
2021/12/11 03:07:11;;;;;;;28.80;11.52;;;;;;;;;;5014176;28;20091;-73
2021/12/11 03:09:42;;;;;;;42.53;14.38;;;;;;;;;;5014214;28;20038;-73
2021/12/11 03:12:10;;;;;;;27.27;14.27;;;;;;;;;;5012529;28;20034;-73
2021/12/11 03:14:37;;;;;;;29.92;12.93;;;;;;;;;;5011921;28;20180;-73
2021/12/11 03:17:03;;;;;;;;;;;;;;;;;;5012848;28;20449;-73
2021/12/11 03:19:31;;;;;;;33.38;10.55;;;;;;;;;;5012904;28;19913;-73
2021/12/11 03:22:01;;;;;;;22.80;11.73;;;;;;;;;;5013976;28;20044;-73
2021/12/11 03:24:28;;;;;;;27.73;11.55;;;;;;;;;;5000304;28;20028;-73
2021/12/11 03:26:54;;;;;;;26.45;9.07;;;;;;;;;;5007751;28;20076;-73
2021/12/11 03:29:20;;;;;;;27.65;11.00;;;;;;;;;;5004872;28;20096;-73
2021/12/11 03:31:46;;;;;;;26.65;10.00;;;;;;;;;;5006447;28;20061;-73
2021/12/11 03:34:16;;;;;;;16.07;7.83;;;;;;;;;;5013608;28;20038;-73
2021/12/11 03:36:42;;;;;;;19.00;6.55;;;;;;;;;;5020732;28;20049;-73
2021/12/11 03:39:13;;;;;;;24.55;8.55;;;;;;;;;;5004617;28;20052;-73
2021/12/11 03:41:40;;;;;;;17.52;6.25;;;;;;;;;;5013955;28;20117;-73
2021/12/11 03:44:06;;;;;;;24.40;6.80;;;;;;;;;;5013393;28;20489;-73
2021/12/11 03:46:31;;;;;;;14.05;7.20;;;;;;;;;;5012532;28;20163;-73
2021/12/11 03:49:01;;;;;;;20.30;6.20;;;;;;;;;;5003729;28;20117;-73
2021/12/11 03:51:30;;;;;;;18.08;6.72;;;;;;;;;;5010014;28;20129;-73
2021/12/11 03:53:56;;;;;;;18.20;6.68;;;;;;;;;;5013216;28;20516;-73
2021/12/11 03:56:22;;;;;;;20.10;6.30;;;;;;;;;;5013567;28;20041;-73
2021/12/11 03:58:49;;;;;;;17.20;6.33;;;;;;;;;;5013586;28;20553;-74
2021/12/11 04:01:22;;;;;;;12.32;5.30;;;;;;;;;;5013330;28;20026;-74
2021/12/11 04:03:49;;;;;;;10.90;6.10;;;;;;;;;;5012308;28;20045;-74
2021/12/11 04:06:16;;;;;;;12.32;5.55;;;;;;;;;;5009366;28;20049;-73
2021/12/11 04:08:43;;;;;;;18.70;5.80;;;;;;;;;;5013184;28;20045;-73
2021/12/11 04:11:09;;;;;;;;;;;;;;;;;;4996143;28;20384;-73
2021/12/11 04:13:36;;;;;;;18.48;5.65;;;;;;;;;;5011761;28;19924;-73
2021/12/11 04:16:01;;;;;;;15.75;5.32;;;;;;;;;;5013447;28;20040;-73
2021/12/11 04:18:27;;;;;;;14.70;5.23;;;;;;;;;;5012117;28;20397;-73
2021/12/11 04:20:52;;;;;;;11.23;4.20;;;;;;;;;;5008383;28;20581;-74
2021/12/11 04:23:19;;;;;;;13.20;5.00;;;;;;;;;;5005235;28;20038;-73
2021/12/11 04:25:49;;;;;;;12.85;5.13;;;;;;;;;;5019287;28;20073;-73
2021/12/11 04:28:17;;;;;;;12.13;4.63;;;;;;;;;;4998024;28;20053;-73
2021/12/11 04:30:44;;;;;;;13.10;4.63;;;;;;;;;;5011029;28;20042;-73
2021/12/11 04:33:10;;;;;;;16.70;4.85;;;;;;;;;;5001246;28;20065;-73
2021/12/11 04:35:35;;;;;;;11.20;4.57;;;;;;;;;;5011234;28;20393;-73
2021/12/11 04:38:04;;;;;;;15.83;5.53;;;;;;;;;;5009454;28;20494;-73
2021/12/11 04:40:34;;;;;;;21.45;6.20;;;;;;;;;;5007096;28;20184;-74
2021/12/11 04:45:34;;;;;;;12.17;3.50;;;;;;;;;;5002167;28;20050;-73
2021/12/11 04:48:13;;;;;;;12.40;4.90;;;;;;;;;;5003556;28;20046;-74
2021/12/11 04:50:50;;;;;;;14.43;4.93;;;;;;;;;;5011603;28;20525;-73
2021/12/11 04:56:26;;;;;;;9.38;4.13;;;;;;;;;;5000289;28;20083;-73
2021/12/11 04:59:11;;;;;;;11.52;4.30;;;;;;;;;;5012337;28;20109;-73
2021/12/11 05:12:09;;;;;;;18.60;4.57;;;;;;;;;;5011079;28;20393;-73
2021/12/11 05:14:35;;;;;;;19.55;5.65;;;;;;;;;;5020522;28;20520;-73
2021/12/11 05:17:01;;;;;;;8.17;3.50;;;;;;;;;;5014178;28;20034;-73
2021/12/11 05:19:27;;;;;;;10.82;3.90;;;;;;;;;;5014252;28;20283;-73
2021/12/11 05:21:52;;;;;;;7.53;3.20;;;;;;;;;;5011802;28;20041;-73
2021/12/11 05:24:20;;;;;;;11.90;2.90;;;;;;;;;;5012350;28;20087;-73
2021/12/11 05:26:45;;;;;;;7.03;2.88;;;;;;;;;;5015817;28;20129;-73
2021/12/11 05:29:13;;;;;;;11.13;3.90;;;;;;;;;;5016183;28;20503;-73
2021/12/11 05:31:38;;;;;;;12.40;3.83;;;;;;;;;;5014473;28;20054;-73
2021/12/11 05:34:05;;;;;;;12.13;2.87;;;;;;;;;;5011730;28;20500;-73
2021/12/11 05:36:32;;;;;;;13.00;4.82;;;;;;;;;;5023997;28;20030;-73
2021/12/11 05:38:59;;;;;;;9.20;3.17;;;;;;;;;;5014750;28;20037;-73
2021/12/11 05:41:24;;;;;;;7.30;3.33;;;;;;;;;;5013426;28;20049;-73
2021/12/11 05:43:51;;;;;;;12.03;3.80;;;;;;;;;;5014753;28;20444;-73
2021/12/11 05:46:17;;;;;;;8.50;3.47;;;;;;;;;;5011274;28;20114;-73
2021/12/11 05:48:46;;;;;;;13.60;4.05;;;;;;;;;;5014959;28;20450;-73
2021/12/11 05:51:16;;;;;;;9.65;3.50;;;;;;;;;;5012115;28;20041;-73
2021/12/11 05:53:42;;;;;;;14.32;3.42;;;;;;;;;;5023136;28;20046;-73
2021/12/11 05:56:11;;;;;;;15.20;2.87;;;;;;;;;;5009513;28;20089;-73
2021/12/11 06:01:22;;;;;;;9.38;3.22;;;;;;;;;;5010891;28;20038;-73
2021/12/11 06:03:48;;;;;;;7.50;2.97;;;;;;;;;;5011040;28;20050;-73
2021/12/11 06:06:14;;;;;;;10.15;2.83;;;;;;;;;;5009731;28;20062;-73
2021/12/11 06:08:39;;;;;;;6.10;3.00;;;;;;;;;;5014346;28;20057;-70
2021/12/11 06:11:05;;;;;;;13.93;3.10;;;;;;;;;;5014252;28;20042;-74
2021/12/11 06:13:31;;;;;;;6.70;3.00;;;;;;;;;;5013319;28;20068;-74
2021/12/11 06:15:57;;;;;;;8.50;2.73;;;;;;;;;;5010909;28;20431;-74
2021/12/11 06:18:24;;;;;;;14.35;2.90;;;;;;;;;;5012419;28;20045;-74
2021/12/11 06:20:49;;;;;;;7.20;2.20;;;;;;;;;;5030286;28;20045;-75
2021/12/11 06:23:16;;;;;;;7.13;3.17;;;;;;;;;;5013811;28;20088;-74
2021/12/11 06:25:42;;;;;;;7.82;2.40;;;;;;;;;;5022568;28;20069;-73
2021/12/11 06:28:08;;;;;;;4.97;2.53;;;;;;;;;;5009777;28;20068;-73
2021/12/11 06:30:34;;;;;;;8.97;2.33;;;;;;;;;;5003706;28;20117;-73
2021/12/11 06:33:00;;;;;;;6.15;2.65;;;;;;;;;;5011493;28;20042;-73
2021/12/11 06:35:42;;;;;;;6.30;2.57;;;;;;;;;;5015001;28;20038;-74
2021/12/11 06:38:10;;;;;;;9.73;3.13;;;;;;;;;;5014894;28;20028;-73
2021/12/11 06:40:36;;;;;;;7.53;2.35;;;;;;;;;;5010349;28;20039;-73
2021/12/11 06:43:02;;;;;;;4.27;2.27;;;;;;;;;;5012338;28;20026;-74
2021/12/11 06:45:28;;;;;;;13.82;2.88;;;;;;;;;;5014645;28;20263;-73
2021/12/11 06:47:54;;;;;;;9.67;2.87;;;;;;;;;;5014822;28;20481;-73
2021/12/11 06:50:20;;;;;;;6.53;2.63;;;;;;;;;;5014190;28;20486;-73
2021/12/11 06:52:47;;;;;;;8.97;2.70;;;;;;;;;;5014595;28;20061;-73
2021/12/11 06:55:13;;;;;;;6.43;2.67;;;;;;;;;;5014062;28;20127;-74
2021/12/11 06:57:39;;;;;;;11.50;3.38;;;;;;;;;;5028985;28;20045;-73
2021/12/11 07:00:05;;;;;;;10.30;2.70;;;;;;;;;;5014509;28;20040;-74
2021/12/11 07:02:31;;;;;;;6.70;2.58;;;;;;;;;;5009629;28;20046;-75
2021/12/11 07:04:57;;;;;;;8.20;2.97;;;;;;;;;;5007801;28;20044;-75
2021/12/11 07:07:26;;;;;;;14.43;3.00;;;;;;;;;;5013969;28;20026;-75
2021/12/11 07:09:54;;;;;;;8.23;2.88;;;;;;;;;;5013073;28;20038;-75
2021/12/11 07:12:19;;;;;;;7.68;2.20;;;;;;;;;;5029391;28;20017;-75
2021/12/11 07:14:46;;;;;;;7.53;3.30;;;;;;;;;;5011624;28;20089;-75
2021/12/11 07:17:12;;;;;;;8.52;2.88;;;;;;;;;;5029194;28;20287;-75
2021/12/11 07:19:38;;;;;;;10.30;3.80;;;;;;;;;;5011850;28;20053;-73
2021/12/11 07:22:03;;;;;;;10.03;2.80;;;;;;;;;;5013310;28;20025;-73
2021/12/11 07:24:43;;;;;;;8.03;2.60;;;;;;;;;;5013945;28;20038;-73
2021/12/11 07:27:10;;;;;;;9.10;3.13;;;;;;;;;;5013451;28;20473;-73
2021/12/11 07:29:36;;;;;;;6.55;2.40;;;;;;;;;;5012735;28;20048;-73
2021/12/11 07:32:04;;;;;;;7.05;2.50;;;;;;;;;;5018233;28;20042;-73
2021/12/11 07:34:29;;;;;;;9.23;2.70;;;;;;;;;;5009457;28;20034;-73
2021/12/11 07:36:55;;;;;;;7.97;2.27;;;;;;;;;;5013433;28;20041;-73
2021/12/11 07:39:21;;;;;;;7.80;2.25;;;;;;;;;;5013660;28;20033;-73
2021/12/11 07:41:48;;;;;;;7.95;2.00;;;;;;;;;;5028667;28;20497;-72
2021/12/11 07:44:14;;;;;;;;;;;;;;;;;;5002414;28;20042;-73
2021/12/11 07:46:39;;;;;;;10.27;2.78;;;;;;;;;;5013788;28;20048;-73
2021/12/11 07:49:05;;;;;;;11.10;2.23;;;;;;;;;;5012519;28;20124;-73
2021/12/11 07:51:32;;;;;;;5.43;2.40;;;;;;;;;;5013324;28;20046;-73
2021/12/11 07:53:58;;;;;;;7.53;2.00;;;;;;;;;;5013622;28;20038;-73
2021/12/11 07:56:24;;;;;;;6.70;2.10;;;;;;;;;;5016877;28;20033;-73
2021/12/11 07:58:54;;;;;;;10.15;2.60;;;;;;;;;;5018149;28;20045;-72
2021/12/11 08:01:20;;;;;;;7.88;2.40;;;;;;;;;;5025976;28;20037;-75
2021/12/11 08:03:45;;;;;;;9.10;2.80;;;;;;;;;;5005732;28;20087;-75
2021/12/11 08:06:12;;;;;;;7.10;2.73;;;;;;;;;;5013222;28;20042;-75
2021/12/11 08:08:38;;;;;;;7.57;2.28;;;;;;;;;;5013490;28;20036;-75
2021/12/11 08:11:11;;;;;;;7.32;2.92;;;;;;;;;;5013459;28;20099;-75
2021/12/11 08:13:37;;;;;;;10.52;3.00;;;;;;;;;;5017009;28;20044;-73
2021/12/11 08:16:03;;;;;;;5.47;2.08;;;;;;;;;;5013163;28;20084;-73
2021/12/11 08:18:28;;;;;;;6.07;2.03;;;;;;;;;;5012674;28;20042;-73
2021/12/11 08:20:54;;;;;;;6.00;2.50;;;;;;;;;;5002750;28;20128;-73
2021/12/11 08:23:20;;;;;;;7.60;2.20;;;;;;;;;;5003529;28;20023;-73
2021/12/11 08:25:46;;;;;;;6.90;2.23;;;;;;;;;;5007536;28;20041;-73
2021/12/11 08:28:13;;;;;;;;;;;;;;;;;;5009540;28;20112;-73
2021/12/11 08:30:40;;;;;;;9.25;3.13;;;;;;;;;;5001729;28;19918;-73
2021/12/11 08:33:06;;;;;;;6.43;3.03;;;;;;;;;;5012075;28;20474;-73
2021/12/11 08:35:32;;;;;;;11.47;5.43;;;;;;;;;;5022652;28;20038;-72
2021/12/11 08:37:57;;;;;;;7.63;2.80;;;;;;;;;;5012867;28;20377;-73
2021/12/11 08:40:27;;;;;;;6.67;3.30;;;;;;;;;;5028434;28;20401;-73
2021/12/11 08:42:52;;;;;;;5.78;2.78;;;;;;;;;;5010433;28;20046;-73
2021/12/11 08:45:23;;;;;;;9.13;3.10;;;;;;;;;;5012922;28;20034;-73
2021/12/11 08:47:52;;;;;;;6.03;3.53;;;;;;;;;;5011923;28;20046;-73
2021/12/11 08:50:21;;;;;;;10.57;3.60;;;;;;;;;;5019489;28;20421;-72
2021/12/11 08:52:49;;;;;;;10.27;4.18;;;;;;;;;;5015902;28;20050;-73
2021/12/11 08:55:21;;;;;;;8.98;5.03;;;;;;;;;;5014605;28;20038;-74
2021/12/11 08:57:46;;;;;;;12.73;4.63;;;;;;;;;;5031171;28;20555;-73
2021/12/11 09:00:18;;;;;;;10.97;4.37;;;;;;;;;;5004587;28;20114;-72
2021/12/11 09:02:49;;;;;;;7.15;3.95;;;;;;;;;;5002800;28;20474;-73
2021/12/11 09:05:24;;;;;;;10.43;3.35;;;;;;;;;;5016596;28;20103;-73
2021/12/11 09:08:01;;;;;;;7.00;2.75;;;;;;;;;;5016482;28;20030;-73
2021/12/11 09:10:50;;;;;;;6.90;3.05;;;;;;;;;;5016580;28;20033;-73
2021/12/11 09:13:30;;;;;;;7.13;3.15;;;;;;;;;;5019040;28;20023;-73
2021/12/11 09:16:24;;;;;;;4.70;2.63;;;;;;;;;;5006891;28;20033;-73
2021/12/11 09:19:14;;;;;;;9.23;2.75;;;;;;;;;;5011438;28;20477;-73
2021/12/11 09:21:42;;;;;;;6.25;2.58;;;;;;;;;;5013797;28;20050;-73
2021/12/11 09:24:13;;;;;;;7.75;2.70;;;;;;;;;;5014935;28;20030;-73
2021/12/11 09:26:55;;;;;;;4.50;2.40;;;;;;;;;;5008166;28;20034;-73
2021/12/11 09:29:30;;;;;;;6.70;2.30;;;;;;;;;;5020407;28;20185;-72
2021/12/11 09:32:28;;;;;;;5.18;2.55;;;;;;;;;;5011606;28;20043;-74
2021/12/11 09:35:04;;;;;;;6.38;2.50;;;;;;;;;;5000196;28;20054;-73
2021/12/11 09:37:32;;;;;;;6.68;3.38;;;;;;;;;;5004417;28;20056;-73
2021/12/11 09:40:12;;;;;;;8.63;3.67;;;;;;;;;;5022865;28;20512;-74
2021/12/11 09:42:37;;;;;;;6.28;3.13;;;;;;;;;;5015470;28;20046;-73
2021/12/11 09:45:13;;;;;;;9.17;3.80;;;;;;;;;;5015401;28;20045;-74
2021/12/11 09:47:41;;;;;;;8.00;3.85;;;;;;;;;;5013922;28;20038;-73
2021/12/11 09:50:13;;;;;;;7.07;3.75;;;;;;;;;;5013659;28;20112;-74
2021/12/11 09:52:41;;;;;;;8.63;5.03;;;;;;;;;;5028438;28;20030;-73
2021/12/11 09:55:23;;;;;;;9.05;4.75;;;;;;;;;;5015610;28;20056;-73
2021/12/11 09:57:56;;;;;;;7.63;4.15;;;;;;;;;;5012409;28;20045;-73
2021/12/11 10:00:30;;;;;;;6.47;4.03;;;;;;;;;;5015089;28;20038;-73
2021/12/11 10:02:56;;;;;;;7.05;3.92;;;;;;;;;;5010183;28;20038;-73
2021/12/11 10:05:35;;;;;;;5.97;3.60;;;;;;;;;;5015004;28;20491;-73
2021/12/11 10:11:01;;;;;;;10.93;4.03;;;;;;;;;;5013945;28;20520;-73
2021/12/11 10:13:28;;;;;;;6.55;3.17;;;;;;;;;;5013694;28;20034;-73
2021/12/11 10:15:53;;;;;;;7.45;3.78;;;;;;;;;;5009445;28;20171;-73
2021/12/11 10:18:22;;;;;;;6.27;2.87;;;;;;;;;;5003405;28;20113;-73
2021/12/11 10:21:14;;;;;;;8.73;3.80;;;;;;;;;;5011591;28;20025;-73
2021/12/11 10:23:44;;;;;;;11.50;4.78;;;;;;;;;;5026090;28;20061;-73
2021/12/11 10:26:11;;;;;;;7.95;5.43;;;;;;;;;;5005011;28;20030;-73
2021/12/11 10:28:46;;;;;;;11.05;6.07;;;;;;;;;;5014919;28;20046;-73
2021/12/11 10:31:35;;;;;;;9.32;5.65;;;;;;;;;;5014636;28;20064;-73
2021/12/11 10:34:05;;;;;;;12.82;7.07;;;;;;;;;;5014505;28;20077;-73
2021/12/11 10:36:34;;;;;;;13.93;7.35;;;;;;;;;;5014875;28;20095;-73
2021/12/11 10:39:00;;;;;;;10.10;6.18;;;;;;;;;;5014520;28;20130;-73
2021/12/11 10:41:28;;;;;;;13.88;6.95;;;;;;;;;;5013506;28;20033;-73
2021/12/11 10:43:59;;;;;;;9.95;5.15;;;;;;;;;;5014730;28;20080;-73
2021/12/11 10:46:29;;;;;;;11.23;5.25;;;;;;;;;;5013633;28;20084;-73
2021/12/11 10:48:55;;;;;;;7.15;3.88;;;;;;;;;;5014594;28;20034;-73
2021/12/11 10:51:33;;;;;;;8.63;3.63;;;;;;;;;;5014661;28;20125;-73
2021/12/11 10:53:59;;;;;;;6.70;3.13;;;;;;;;;;5013366;28;20069;-74
2021/12/11 10:56:26;;;;;;;6.90;2.70;;;;;;;;;;5014816;28;20093;-72
2021/12/11 10:58:57;;;;;;;;;;;;;;;;;;5014861;28;20022;-73
2021/12/11 11:01:27;;;;;;;6.43;3.08;;;;;;;;;;5010084;28;19924;-73
2021/12/11 11:03:58;;;;;;;7.35;2.65;;;;;;;;;;5012950;28;20064;-73
2021/12/11 11:06:24;;;;;;;6.05;2.58;;;;;;;;;;5013905;28;20390;-73
2021/12/11 11:08:51;;;;;;;8.65;3.05;;;;;;;;;;5009482;28;20081;-73
2021/12/11 11:11:18;;;;;;;;;;;;;;;;;;5014621;28;20450;-73
2021/12/11 11:13:44;;;;;;;11.80;3.13;;;;;;;;;;5013541;28;20339;-73
2021/12/11 11:16:10;;;;;;;10.52;3.72;;;;;;;;;;5014045;28;20445;-73
2021/12/11 11:18:35;;;;;;;12.30;4.50;;;;;;;;;;5012733;28;20037;-73
2021/12/11 11:21:14;;;;;;;25.87;4.73;;;;;;;;;;5014069;28;20120;-73
2021/12/11 11:23:41;;;;;;;16.75;5.85;;;;;;;;;;5009917;28;20046;-73
2021/12/11 11:26:11;;;;;;;8.05;3.85;;;;;;;;;;5013786;28;20053;-73
2021/12/11 11:28:37;;;;;;;7.43;3.00;;;;;;;;;;5012610;28;20444;-73
2021/12/11 11:31:15;;;;;;;7.80;2.70;;;;;;;;;;5012351;28;20050;-75
2021/12/11 11:33:42;;;;;;;7.07;3.55;;;;;;;;;;4993036;28;20046;-75
2021/12/11 11:36:11;;;;;;;10.43;3.90;;;;;;;;;;5000539;28;20489;-75
2021/12/11 11:38:41;;;;;;;14.35;5.50;;;;;;;;;;5012845;28;20034;-75
2021/12/11 11:41:13;;;;;;;24.05;8.68;;;;;;;;;;5011008;28;20109;-75
2021/12/11 11:43:40;;;;;;;18.63;8.02;;;;;;;;;;5003072;28;20041;-75
2021/12/11 11:46:06;;;;;;;15.13;7.70;;;;;;;;;;5012175;28;20029;-75
2021/12/11 11:48:35;;;;;;;15.00;6.25;;;;;;;;;;5010944;28;20410;-74
2021/12/11 11:51:04;;;;;;;23.27;6.45;;;;;;;;;;5011815;28;20034;-73
2021/12/11 11:53:29;;;;;;;14.65;5.22;;;;;;;;;;5013412;28;20038;-72
2021/12/11 11:55:59;;;;;;;14.90;5.67;;;;;;;;;;5013510;28;20033;-74
2021/12/11 11:58:27;;;;;;;16.50;6.10;;;;;;;;;;5012343;28;20111;-74
2021/12/11 12:00:57;;;;;;;11.02;5.88;;;;;;;;;;5011718;28;20041;-74
2021/12/11 12:03:26;;;;;;;20.08;5.20;;;;;;;;;;5006415;28;20033;-74
2021/12/11 12:05:56;;;;;;;24.83;6.32;;;;;;;;;;5010614;28;20041;-75
2021/12/11 12:08:21;;;;;;;21.27;5.10;;;;;;;;;;5010126;28;20440;-75
2021/12/11 12:10:49;;;;;;;15.63;4.80;;;;;;;;;;5013016;28;20030;-74
2021/12/11 12:13:19;;;;;;;11.20;3.63;;;;;;;;;;5011259;28;20030;-74
2021/12/11 12:15:47;;;;;;;26.52;5.13;;;;;;;;;;5006253;28;20037;-74
2021/12/11 12:18:14;;;;;;;24.27;4.80;;;;;;;;;;5007519;28;20120;-74
2021/12/11 12:20:41;;;;;;;13.82;3.25;;;;;;;;;;5013212;28;20056;-74
2021/12/11 12:23:08;;;;;;;;;;;;;;;;;;5028663;28;20092;-73
2021/12/11 12:25:34;;;;;;;18.08;4.63;;;;;;;;;;5014596;28;20357;-74
2021/12/11 12:27:59;;;;;;;21.02;4.10;;;;;;;;;;5017220;28;20045;-74
2021/12/11 12:30:34;;;;;;;12.43;3.73;;;;;;;;;;5016632;28;20057;-74
2021/12/11 12:33:00;;;;;;;14.77;3.95;;;;;;;;;;5012937;28;20030;-73
2021/12/11 12:35:27;;;;;;;23.67;4.30;;;;;;;;;;5002363;28;20084;-74
2021/12/11 12:37:53;;;;;;;26.27;8.00;;;;;;;;;;5014747;28;20034;-73
2021/12/11 12:40:27;;;;;;;21.80;5.87;;;;;;;;;;5007977;28;20042;-74
2021/12/11 12:42:57;;;;;;;14.93;3.22;;;;;;;;;;5008485;28;20288;-73
2021/12/11 12:45:37;;;;;;;20.13;4.75;;;;;;;;;;5010243;28;20119;-74
2021/12/11 12:48:08;;;;;;;19.30;5.30;;;;;;;;;;5010234;28;20042;-73
2021/12/11 12:50:59;;;;;;;14.00;3.92;;;;;;;;;;5015604;28;20030;-73
2021/12/11 12:53:26;;;;;;;20.73;2.95;;;;;;;;;;5009701;28;20049;-73
2021/12/11 12:55:54;;;;;;;17.02;4.57;;;;;;;;;;5004169;28;20033;-74
2021/12/11 12:58:24;;;;;;;13.48;3.22;;;;;;;;;;5011925;28;20382;-74
2021/12/11 13:00:55;;;;;;;9.23;3.78;;;;;;;;;;5009074;28;20029;-74
2021/12/11 13:03:23;;;;;;;11.30;3.00;;;;;;;;;;5009120;28;20076;-74
2021/12/11 13:05:56;;;;;;;7.18;2.20;;;;;;;;;;5011669;28;20088;-74
2021/12/11 13:08:33;;;;;;;15.75;2.63;;;;;;;;;;5013584;28;20042;-74
2021/12/11 13:11:08;;;;;;;13.57;2.42;;;;;;;;;;5012951;28;20026;-74
2021/12/11 13:13:34;;;;;;;7.63;2.78;;;;;;;;;;5014273;28;20056;-74
2021/12/11 13:16:05;;;;;;;9.88;2.80;;;;;;;;;;5023454;28;20038;-73
2021/12/11 13:18:33;;;;;;;16.63;3.30;;;;;;;;;;5012576;28;20048;-73
2021/12/11 13:21:17;;;;;;;15.30;3.30;;;;;;;;;;5021329;28;20038;-74
2021/12/11 13:23:47;;;;;;;12.15;3.22;;;;;;;;;;5014988;28;20048;-73
2021/12/11 13:26:17;;;;;;;12.82;4.03;;;;;;;;;;5030736;28;20029;-74
2021/12/11 13:28:50;;;;;;;13.45;4.70;;;;;;;;;;5010570;28;20050;-74
2021/12/11 13:31:22;;;;;;;12.90;4.13;;;;;;;;;;5015365;28;20053;-74
2021/12/11 13:33:48;;;;;;;12.10;3.97;;;;;;;;;;5013360;28;20034;-73
2021/12/11 13:36:15;;;;;;;10.45;3.40;;;;;;;;;;5014333;28;20044;-74
2021/12/11 13:38:42;;;;;;;13.53;4.33;;;;;;;;;;5015973;28;20037;-74
2021/12/11 13:41:19;;;;;;;12.27;3.58;;;;;;;;;;5015847;28;20291;-74
2021/12/11 13:43:44;;;;;;;11.57;3.92;;;;;;;;;;5007918;28;20041;-73
2021/12/11 13:46:11;;;;;;;13.00;3.90;;;;;;;;;;5014334;28;20041;-74
2021/12/11 13:48:37;;;;;;;13.00;4.25;;;;;;;;;;5010720;28;20386;-74
2021/12/11 13:51:08;;;;;;;17.20;6.03;;;;;;;;;;5011024;28;20121;-74
2021/12/11 13:53:37;;;;;;;20.63;6.28;;;;;;;;;;5000760;28;20520;-74
2021/12/11 13:56:08;;;;;;;12.27;4.13;;;;;;;;;;5014545;28;20446;-74
2021/12/11 14:22:05;;;;;;;12.27;5.47;;;;;;;;;;5059571;27;20385;-76
2021/12/11 14:24:32;;;;;;;16.60;6.55;;;;;;;;;;5040427;28;20569;-73
2021/12/11 14:26:59;;;;;;;10.68;4.60;;;;;;;;;;5052344;28;20029;-73
2021/12/11 14:29:25;;;;;;;16.05;5.43;;;;;;;;;;5049445;28;20052;-82
2021/12/11 14:31:51;;;;;;;10.65;5.13;;;;;;;;;;5044549;28;20033;-74
2021/12/11 14:34:16;;;;;;;11.23;4.40;;;;;;;;;;5050188;28;20040;-73
2021/12/11 14:36:42;;;;;;;16.00;4.87;;;;;;;;;;5047160;28;20465;-73
2021/12/11 14:39:14;;;;;;;10.53;4.07;;;;;;;;;;5052398;28;20041;-73
2021/12/11 14:41:42;;;;;;;8.60;4.00;;;;;;;;;;5049802;28;20029;-73
2021/12/11 14:44:13;;;;;;;10.90;4.05;;;;;;;;;;5044407;28;20120;-74
2021/12/11 14:46:38;;;;;;;9.05;4.25;;;;;;;;;;5049485;28;20060;-74
2021/12/11 14:49:05;;;;;;;9.20;2.50;;;;;;;;;;5050093;28;20083;-75
2021/12/11 14:51:32;;;;;;;13.82;3.22;;;;;;;;;;5049791;28;20032;-74
2021/12/11 14:53:59;;;;;;;10.23;3.60;;;;;;;;;;5065249;28;20076;-74
2021/12/11 14:56:37;;;;;;;13.30;3.38;;;;;;;;;;5056570;28;20400;-74
2021/12/11 14:59:14;;;;;;;18.55;4.18;;;;;;;;;;5039897;28;20049;-75
2021/12/11 15:01:45;;;;;;;14.13;4.28;;;;;;;;;;5048251;28;20028;-74
2021/12/11 15:04:15;;;;;;;10.05;4.05;;;;;;;;;;5031214;28;20045;-74
2021/12/11 15:06:40;;;;;;;13.13;4.10;;;;;;;;;;5049245;28;20063;-74
2021/12/11 15:09:08;;;;;;;7.47;3.90;;;;;;;;;;5047391;28;20073;-74
2021/12/11 15:11:36;;;;;;;9.27;4.20;;;;;;;;;;5049018;28;20033;-75
2021/12/11 15:14:04;;;;;;;13.18;4.78;;;;;;;;;;5047834;28;20090;-74
2021/12/11 15:16:30;;;;;;;12.73;4.97;;;;;;;;;;5064452;28;20048;-74
2021/12/11 15:18:59;;;;;;;18.03;5.43;;;;;;;;;;5040904;28;20036;-74
2021/12/11 15:21:26;;;;;;;12.75;6.90;;;;;;;;;;5046813;28;20099;-75
2021/12/11 15:23:59;;;;;;;13.93;6.97;;;;;;;;;;5046498;28;20041;-74
2021/12/11 15:26:27;;;;;;;12.95;5.65;;;;;;;;;;5044790;28;20509;-74
2021/12/11 15:28:54;;;;;;;11.73;5.25;;;;;;;;;;5047055;28;20041;-74
2021/12/11 15:31:26;;;;;;;14.88;5.65;;;;;;;;;;5050090;28;20464;-74
2021/12/11 15:33:57;;;;;;;17.05;5.50;;;;;;;;;;5034292;28;20045;-75
2021/12/11 15:36:24;;;;;;;15.50;5.10;;;;;;;;;;5034929;28;20045;-74